createdAt,value
2022-08-24T00:02:16.959Z,59.45
2022-08-24T00:05:02.554Z,59.06
2022-08-24T00:07:49.191Z,59.76
2022-08-24T00:10:34.186Z,59.33
2022-08-24T00:13:19.804Z,59.49
2022-08-24T00:16:07.397Z,59.49
2022-08-24T00:18:52.740Z,60.28
2022-08-24T00:21:37.873Z,58.59
2022-08-24T00:24:23.161Z,60.11
2022-08-24T00:27:08.901Z,58.89
2022-08-24T00:29:54.064Z,61.37
2022-08-24T00:32:39.345Z,60.84
2022-08-24T00:35:24.662Z,59.45
2022-08-24T00:38:09.612Z,60.66
2022-08-24T00:40:54.594Z,61.11
2022-08-24T00:43:40.040Z,61.25
2022-08-24T00:46:27.757Z,60.85
2022-08-24T00:49:37.023Z,61.15
2022-08-24T00:52:27.488Z,59.87
2022-08-24T00:55:23.400Z,61.72
2022-08-24T00:58:20.592Z,61.58
2022-08-24T01:01:09.073Z,62.58
2022-08-24T01:03:57.239Z,63.12
2022-08-24T01:06:42.773Z,61.20
2022-08-24T01:09:27.840Z,62.98
2022-08-24T01:12:14.273Z,62.33
2022-08-24T01:15:01.729Z,62.83
2022-08-24T01:17:47.037Z,62.70
2022-08-24T01:20:32.209Z,63.86
2022-08-24T01:23:38.273Z,63.72
2022-08-24T01:26:42.523Z,63.31
2022-08-24T01:29:29.872Z,62.63
2022-08-24T01:32:18.714Z,62.58
2022-08-24T01:35:04.887Z,62.08
2022-08-24T01:37:51.293Z,62.14
2022-08-24T01:40:43.902Z,62.50
2022-08-24T01:43:29.926Z,62.05
2022-08-24T01:46:15.662Z,62.23
2022-08-24T01:49:00.922Z,62.18
2022-08-24T01:51:45.993Z,62.12
2022-08-24T01:54:31.141Z,62.17
2022-08-24T01:57:17.066Z,62.15
2022-08-24T02:00:06.984Z,64.17
2022-08-24T02:02:52.312Z,64.65
2022-08-24T02:05:37.484Z,64.07
2022-08-24T02:08:22.499Z,64.60
2022-08-24T02:11:08.423Z,63.27
2022-08-24T02:13:53.541Z,65.04
2022-08-24T02:16:40.265Z,64.99
2022-08-24T02:19:26.093Z,65.52
2022-08-24T02:22:11.577Z,63.81
2022-08-24T02:24:56.630Z,64.17
2022-08-24T02:27:41.627Z,65.46
2022-08-24T02:30:29.158Z,64.29
2022-08-24T02:33:14.487Z,64.44
2022-08-24T02:35:59.684Z,65.93
2022-08-24T02:38:44.468Z,66.16
2022-08-24T02:41:29.476Z,67.77
2022-08-24T02:44:14.414Z,68.00
2022-08-24T02:46:59.359Z,67.39
2022-08-24T02:49:44.447Z,68.06
2022-08-24T02:52:29.477Z,67.29
2022-08-24T02:55:19.849Z,68.32
2022-08-24T02:58:05.899Z,68.03
2022-08-24T03:00:51.304Z,69.69
2022-08-24T03:03:36.649Z,69.49
2022-08-24T03:06:21.636Z,69.04
2022-08-24T03:09:06.948Z,68.87
2022-08-24T03:11:51.977Z,66.17
2022-08-24T03:14:37.376Z,67.07
2022-08-24T03:17:22.302Z,66.65
2022-08-24T03:20:10.340Z,66.38
2022-08-24T03:22:55.522Z,65.31
2022-08-24T03:25:40.753Z,65.13
2022-08-24T03:28:25.655Z,65.45
2022-08-24T03:31:10.921Z,67.26
2022-08-24T03:33:56.296Z,65.41
2022-08-24T03:36:43.440Z,65.30
2022-08-24T03:39:28.548Z,65.52
2022-08-24T03:42:14.864Z,65.63
2022-08-24T03:44:59.844Z,65.83
2022-08-24T03:47:44.689Z,66.11
2022-08-24T03:50:30.369Z,64.92
2022-08-24T03:53:15.609Z,64.97
2022-08-24T03:56:00.510Z,65.16
2022-08-24T03:58:52.448Z,65.05
2022-08-24T04:01:38.542Z,65.38
2022-08-24T04:04:24.450Z,66.98
2022-08-24T04:07:09.636Z,65.92
2022-08-24T04:09:54.931Z,67.12
2022-08-24T04:12:39.933Z,67.46
2022-08-24T04:15:25.073Z,67.83
2022-08-24T04:18:10.832Z,67.80
2022-08-24T04:20:55.743Z,68.12
2022-08-24T04:23:46.853Z,67.67
2022-08-24T04:26:44.780Z,67.48
2022-08-24T04:29:31.038Z,67.33
2022-08-24T04:32:16.663Z,68.86
2022-08-24T04:35:01.982Z,70.40
2022-08-24T04:37:47.288Z,70.83
2022-08-24T04:40:33.018Z,70.34
2022-08-24T04:43:20.078Z,70.61
2022-08-24T04:46:07.221Z,69.05
2022-08-24T04:48:52.527Z,70.45
2022-08-24T04:51:37.718Z,70.03
2022-08-24T04:54:22.868Z,70.97
2022-08-24T04:57:08.015Z,69.75
2022-08-24T04:59:56.626Z,69.39
2022-08-24T05:02:44.852Z,69.25
2022-08-24T05:05:30.504Z,70.27
2022-08-24T05:08:16.709Z,70.15
2022-08-24T05:11:04.900Z,70.03
2022-08-24T05:13:54.776Z,69.26
2022-08-24T05:16:40.088Z,70.70
2022-08-24T05:19:30.987Z,69.75
2022-08-24T05:22:16.789Z,72.34
2022-08-24T05:25:02.239Z,71.29
2022-08-24T05:27:48.295Z,73.03
2022-08-24T05:30:33.521Z,72.56
2022-08-24T05:33:18.744Z,70.05
2022-08-24T05:36:06.188Z,70.67
2022-08-24T05:38:53.478Z,70.07
2022-08-24T05:41:44.526Z,70.57
2022-08-24T05:44:31.205Z,71.44
2022-08-24T05:47:16.130Z,70.29
2022-08-24T05:50:01.789Z,68.59
2022-08-24T05:52:46.874Z,68.57
2022-08-24T05:55:32.329Z,68.43
2022-08-24T05:58:22.936Z,68.42
2022-08-24T06:01:17.712Z,70.98
2022-08-24T06:04:03.130Z,71.03
2022-08-24T06:06:48.838Z,67.78
2022-08-24T06:09:34.005Z,68.93
2022-08-24T06:12:18.938Z,67.91
2022-08-24T06:15:04.627Z,66.72
2022-08-24T06:17:50.327Z,65.90
2022-08-24T06:20:41.697Z,65.64
2022-08-24T06:23:26.634Z,65.72
2022-08-24T06:26:15.856Z,65.82
2022-08-24T06:29:02.143Z,65.77
2022-08-24T06:31:54.383Z,65.32
2022-08-24T06:34:40.111Z,66.20
2022-08-24T06:37:26.259Z,66.02
2022-08-24T06:40:13.968Z,65.95
2022-08-24T06:43:03.138Z,65.52
2022-08-24T06:45:48.557Z,65.33
2022-08-24T06:48:34.394Z,64.96
2022-08-24T06:51:21.044Z,65.36
2022-08-24T06:54:05.993Z,64.23
2022-08-24T06:56:51.346Z,63.79
2022-08-24T06:59:36.443Z,63.45
2022-08-24T07:02:21.721Z,63.35
2022-08-24T07:05:07.297Z,64.13
2022-08-24T07:07:52.309Z,61.83
2022-08-24T07:10:37.130Z,61.75
2022-08-24T07:13:22.484Z,62.01
2022-08-24T07:16:07.552Z,64.27
2022-08-24T07:18:52.831Z,60.71
2022-08-24T07:21:38.981Z,62.35
2022-08-24T07:24:25.240Z,60.22
2022-08-24T07:27:10.681Z,58.17
2022-08-24T07:30:16.153Z,57.11
2022-08-24T07:33:01.060Z,56.74
2022-08-24T07:35:45.971Z,55.52
2022-08-24T07:38:31.288Z,55.71
2022-08-24T07:41:43.574Z,52.94
2022-08-24T07:44:21.317Z,50.73
2022-08-24T07:47:21.060Z,48.73
2022-08-24T07:50:13.712Z,47.41
2022-08-24T07:52:58.947Z,46.37
2022-08-24T07:55:52.814Z,44.86
2022-08-24T07:58:37.854Z,44.94
2022-08-24T08:01:23.843Z,43.95
2022-08-24T08:04:09.806Z,44.84
2022-08-24T08:09:41.198Z,41.67
2022-08-24T08:12:27.658Z,42.82
2022-08-24T08:15:12.858Z,41.33
2022-08-24T08:17:58.449Z,41.27
2022-08-24T08:20:43.691Z,39.66
2022-08-24T08:23:28.563Z,40.16
2022-08-24T08:26:21.747Z,38.57
2022-08-24T08:29:07.680Z,38.63
2022-08-24T08:31:53.491Z,37.83
2022-08-24T08:34:38.692Z,38.00
2022-08-24T08:37:23.948Z,37.16
2022-08-24T08:40:36.720Z,36.91
2022-08-24T08:43:37.681Z,37.21
2022-08-24T08:46:40.534Z,36.53
2022-08-24T08:49:51.164Z,36.21
2022-08-24T08:52:36.474Z,35.02
2022-08-24T08:55:36.062Z,35.26
2022-08-24T08:58:24.549Z,34.71
2022-08-24T09:01:32.991Z,34.79
2022-08-24T09:04:52.789Z,35.72
2022-08-24T09:07:40.946Z,34.52
2022-08-24T09:10:51.349Z,34.54
2022-08-24T09:14:19.809Z,33.65
2022-08-24T09:17:13.449Z,34.14
2022-08-24T09:20:14.002Z,34.30
2022-08-24T09:23:14.762Z,34.80
2022-08-24T09:26:22.191Z,34.43
2022-08-24T09:29:18.236Z,34.18
2022-08-24T09:32:21.570Z,34.23
2022-08-24T09:35:13.171Z,36.44
2022-08-24T09:38:22.945Z,38.21
2022-08-24T09:41:27.100Z,36.69
2022-08-24T09:44:31.372Z,37.47
2022-08-24T09:47:31.710Z,39.38
2022-08-24T09:50:36.490Z,38.27
2022-08-24T09:53:33.664Z,39.20
2022-08-24T09:56:34.424Z,38.99
2022-08-24T09:59:50.586Z,40.74
2022-08-24T10:03:03.759Z,40.13
2022-08-24T10:06:10.331Z,40.87
2022-08-24T10:09:25.853Z,41.64
2022-08-24T10:12:32.816Z,42.91
2022-08-24T10:15:31.428Z,43.04
2022-08-24T10:18:43.592Z,43.79
2022-08-24T10:21:31.572Z,42.72
2022-08-24T10:24:29.826Z,44.84
2022-08-24T10:27:24.601Z,47.70
2022-08-24T10:30:37.666Z,43.92
2022-08-24T10:33:37.293Z,45.22
2022-08-24T10:36:47.356Z,43.48
2022-08-24T10:40:06.003Z,46.64
2022-08-24T10:43:36.496Z,42.77
2022-08-24T10:46:30.678Z,43.79
2022-08-24T10:49:34.587Z,44.65
2022-08-24T10:52:50.584Z,43.25
2022-08-24T10:55:35.975Z,42.48
2022-08-24T10:58:39.784Z,44.27
2022-08-24T11:01:35.155Z,41.83
2022-08-24T11:04:29.935Z,43.23
2022-08-24T11:07:15.026Z,45.06
2022-08-24T11:10:03.796Z,43.01
2022-08-24T11:12:48.848Z,43.57
2022-08-24T11:15:51.867Z,42.13
2022-08-24T11:18:47.554Z,41.89
2022-08-24T11:21:49.239Z,41.91
2022-08-24T11:24:45.261Z,41.79
2022-08-24T11:27:38.277Z,41.61
2022-08-24T11:30:26.400Z,42.14
2022-08-24T11:33:26.888Z,41.32
2022-08-24T11:36:22.195Z,41.31
2022-08-24T11:39:13.397Z,44.51
2022-08-24T11:42:04.795Z,42.66
2022-08-24T11:44:58.113Z,42.75
2022-08-24T11:47:58.410Z,42.92
2022-08-24T11:50:46.904Z,43.08
2022-08-24T11:54:03.861Z,42.76
2022-08-24T11:57:21.007Z,41.82
2022-08-24T12:00:11.895Z,40.37
2022-08-24T12:03:34.853Z,41.29
2022-08-24T12:06:38.333Z,38.19
2022-08-24T12:09:29.667Z,35.73
2022-08-24T12:12:20.570Z,36.18
2022-08-24T12:15:16.346Z,37.80
2022-08-24T12:18:17.683Z,35.78
2022-08-24T12:21:03.166Z,34.61
2022-08-24T12:23:58.603Z,33.36
2022-08-24T12:26:50.948Z,32.55
2022-08-24T12:29:52.253Z,34.19
2022-08-24T12:32:48.582Z,32.13
2022-08-24T12:35:52.953Z,34.61
2022-08-24T12:38:47.312Z,34.89
2022-08-24T12:41:36.224Z,32.33
2022-08-24T12:44:26.371Z,32.49
2022-08-24T12:47:13.507Z,33.12
2022-08-24T12:50:10.516Z,33.25
2022-08-24T12:52:58.875Z,30.65
2022-08-24T12:56:13.284Z,29.54
2022-08-24T12:59:15.649Z,28.94
2022-08-24T13:02:15.159Z,27.88
2022-08-24T13:05:11.623Z,29.00
2022-08-24T13:08:25.461Z,29.29
2022-08-24T13:11:32.998Z,29.96
2022-08-24T13:14:25.029Z,29.95
2022-08-24T13:17:12.028Z,28.59
2022-08-24T13:20:23.183Z,29.64
2022-08-24T13:23:11.126Z,30.42
2022-08-24T13:26:18.014Z,29.90
2022-08-24T13:29:03.375Z,32.08
2022-08-24T13:31:53.512Z,33.01
2022-08-24T13:34:45.013Z,33.05
2022-08-24T13:37:30.345Z,32.31
2022-08-24T13:40:27.746Z,33.40
2022-08-24T13:43:23.392Z,32.98
2022-08-24T13:46:27.197Z,33.72
2022-08-24T13:49:15.531Z,34.33
2022-08-24T13:52:16.374Z,34.13
2022-08-24T13:55:13.497Z,33.61
2022-08-24T13:58:36.686Z,34.43
2022-08-24T14:01:34.444Z,33.80
2022-08-24T14:04:25.825Z,33.64
2022-08-24T14:07:23.105Z,34.77
2022-08-24T14:10:31.397Z,35.86
2022-08-24T14:13:36.290Z,34.93
2022-08-24T14:17:19.545Z,37.47
2022-08-24T14:20:33.346Z,35.81
2022-08-24T14:23:33.767Z,34.62
2022-08-24T14:26:34.639Z,35.62
2022-08-24T14:29:19.385Z,35.08
2022-08-24T14:32:12.167Z,34.29
2022-08-24T14:35:22.134Z,34.29
2022-08-24T14:38:19.874Z,36.67
2022-08-24T14:41:08.089Z,41.38
2022-08-24T14:44:19.809Z,35.49
2022-08-24T14:47:05.049Z,36.87
2022-08-24T14:50:23.244Z,35.30
2022-08-24T14:53:26.498Z,40.39
2022-08-24T14:56:39.631Z,35.21
2022-08-24T15:00:02.526Z,36.26
2022-08-24T15:02:47.472Z,40.71
2022-08-24T15:05:32.825Z,37.02
2022-08-24T15:08:38.106Z,36.71
2022-08-24T15:11:26.528Z,35.20
2022-08-24T15:14:24.649Z,41.47
2022-08-24T15:17:28.997Z,35.91
2022-08-24T15:20:39.273Z,36.10
2022-08-24T15:23:52.230Z,35.93
2022-08-24T15:26:59.367Z,38.96
2022-08-24T15:29:58.845Z,35.74
2022-08-24T15:32:48.030Z,35.31
2022-08-24T15:35:43.571Z,37.49
2022-08-24T15:38:28.801Z,42.28
2022-08-24T15:41:19.238Z,36.30
2022-08-24T15:44:24.458Z,35.31
2022-08-24T15:47:17.674Z,37.50
2022-08-24T15:50:08.309Z,39.00
2022-08-24T15:53:00.472Z,42.84
2022-08-24T15:55:49.136Z,36.45
2022-08-24T15:58:39.037Z,35.83
2022-08-24T16:01:25.571Z,36.31
2022-08-24T16:04:14.281Z,35.63
2022-08-24T16:06:59.338Z,40.71
2022-08-24T16:09:44.645Z,38.55
2022-08-24T16:12:32.601Z,36.15
2022-08-24T16:15:19.352Z,44.01
2022-08-24T16:18:05.198Z,37.47
2022-08-24T16:20:50.746Z,39.30
2022-08-24T16:23:36.763Z,40.67
2022-08-24T16:26:25.513Z,38.12
2022-08-24T16:29:36.410Z,44.48
2022-08-24T16:32:32.696Z,41.77
2022-08-24T16:35:36.363Z,38.96
2022-08-24T16:38:21.370Z,38.56
2022-08-24T16:41:11.024Z,40.00
2022-08-24T16:43:57.348Z,38.97
2022-08-24T16:46:42.635Z,38.30
2022-08-24T16:49:34.214Z,40.25
2022-08-24T16:52:20.193Z,38.43
2022-08-24T16:55:06.129Z,38.25
2022-08-24T16:57:51.494Z,42.11
2022-08-24T17:00:36.867Z,38.85
2022-08-24T17:03:22.490Z,38.79
2022-08-24T17:06:07.439Z,37.79
2022-08-24T17:08:52.555Z,37.98
2022-08-24T17:11:37.527Z,40.13
2022-08-24T17:14:22.533Z,37.88
2022-08-24T17:17:12.704Z,38.01
2022-08-24T17:19:58.081Z,38.63
2022-08-24T17:22:42.998Z,38.00
2022-08-24T17:25:28.813Z,38.06
2022-08-24T17:28:17.992Z,38.54
2022-08-24T17:31:03.180Z,38.44
2022-08-24T17:33:48.459Z,38.67
2022-08-24T17:36:34.483Z,38.21
2022-08-24T17:39:21.094Z,39.97
2022-08-24T17:42:21.028Z,39.25
2022-08-24T17:45:11.998Z,44.75
2022-08-24T17:47:57.424Z,43.93
2022-08-24T17:50:42.342Z,43.98
2022-08-24T17:53:27.272Z,46.49
2022-08-24T17:56:14.923Z,47.54
2022-08-24T17:59:00.005Z,48.31
2022-08-24T18:01:44.995Z,47.58
2022-08-24T18:04:32.574Z,48.25
2022-08-24T18:07:35.979Z,50.18
2022-08-24T18:10:28.712Z,51.88
2022-08-24T18:13:14.361Z,52.32
2022-08-24T18:15:59.757Z,52.63
2022-08-24T18:18:45.246Z,51.98
2022-08-24T18:21:30.459Z,49.36
2022-08-24T18:24:15.368Z,46.41
2022-08-24T18:27:02.971Z,48.93
2022-08-24T18:29:58.950Z,46.90
2022-08-24T18:32:46.570Z,47.23
2022-08-24T18:35:31.891Z,48.28
2022-08-24T18:38:16.770Z,49.56
2022-08-24T18:41:02.446Z,50.65
2022-08-24T18:43:47.594Z,51.70
2022-08-24T18:46:32.956Z,52.44
2022-08-24T18:49:19.916Z,50.68
2022-08-24T18:52:08.469Z,51.33
2022-08-24T18:54:54.322Z,53.29
2022-08-24T18:57:39.362Z,50.87
2022-08-24T19:00:24.990Z,52.90
2022-08-24T19:03:15.025Z,54.35
2022-08-24T19:06:00.238Z,51.74
2022-08-24T19:08:45.132Z,48.29
2022-08-24T19:11:30.026Z,48.08
2022-08-24T19:14:16.109Z,45.90
2022-08-24T19:17:01.210Z,46.04
2022-08-24T19:19:46.616Z,44.62
2022-08-24T19:22:32.086Z,45.87
2022-08-24T19:25:24.287Z,44.95
2022-08-24T19:28:09.802Z,45.07
2022-08-24T19:30:57.006Z,44.87
2022-08-24T19:33:45.109Z,44.65
2022-08-24T19:36:31.104Z,44.58
2022-08-24T19:39:17.882Z,44.41
2022-08-24T19:42:11.038Z,44.83
2022-08-24T19:44:57.728Z,44.86
2022-08-24T19:47:43.023Z,46.29
2022-08-24T19:50:28.570Z,45.09
2022-08-24T19:53:13.917Z,45.93
2022-08-24T19:55:59.549Z,46.98
2022-08-24T19:58:59.602Z,45.84
2022-08-24T20:01:44.663Z,46.24
2022-08-24T20:04:29.985Z,44.90
2022-08-24T20:07:17.118Z,45.03
2022-08-24T20:10:12.531Z,44.71
2022-08-24T20:12:59.278Z,45.06
2022-08-24T20:15:44.437Z,44.98
2022-08-24T20:18:32.081Z,45.27
2022-08-24T20:21:17.006Z,45.03
2022-08-24T20:24:02.454Z,44.83
2022-08-24T20:26:47.749Z,44.86
2022-08-24T20:29:33.017Z,47.54
2022-08-24T20:32:18.038Z,45.12
2022-08-24T20:35:03.659Z,47.19
2022-08-24T20:37:49.537Z,45.33
2022-08-24T20:40:35.124Z,45.88
2022-08-24T20:43:20.617Z,45.30
2022-08-24T20:46:06.004Z,45.44
2022-08-24T20:48:55.641Z,44.90
2022-08-24T20:51:41.250Z,45.38
2022-08-24T20:54:28.261Z,45.99
2022-08-24T20:57:16.850Z,45.62
2022-08-24T21:00:02.050Z,45.03
2022-08-24T21:02:47.319Z,45.84
2022-08-24T21:05:32.839Z,45.42
2022-08-24T21:08:18.162Z,45.26
2022-08-24T21:11:03.329Z,46.88
2022-08-24T21:13:48.607Z,45.24
2022-08-24T21:16:36.212Z,46.08
2022-08-24T21:19:21.457Z,45.57
2022-08-24T21:22:06.837Z,45.38
2022-08-24T21:24:52.484Z,45.54
2022-08-24T21:27:40.676Z,46.56
2022-08-24T21:30:25.865Z,46.67
2022-08-24T21:33:11.242Z,46.35
2022-08-24T21:35:56.318Z,46.32
2022-08-24T21:38:45.477Z,45.79
2022-08-24T21:41:30.833Z,46.23
2022-08-24T21:44:16.045Z,46.52
2022-08-24T21:47:01.428Z,46.54
2022-08-24T21:49:46.400Z,48.14
2022-08-24T21:52:31.373Z,46.90
2022-08-24T21:55:16.880Z,47.17
2022-08-24T21:58:02.247Z,48.54
2022-08-24T22:00:47.296Z,47.54
2022-08-24T22:03:39.942Z,47.77
2022-08-24T22:06:30.485Z,47.73
2022-08-24T22:09:16.363Z,48.02
2022-08-24T22:12:01.939Z,47.77
2022-08-24T22:14:47.399Z,48.31
2022-08-24T22:17:32.306Z,49.11
2022-08-24T22:20:23.151Z,48.56
2022-08-24T22:23:08.986Z,49.51
2022-08-24T22:25:54.552Z,49.54
2022-08-24T22:28:41.916Z,50.50
2022-08-24T22:31:30.496Z,51.47
2022-08-24T22:34:20.067Z,52.14
2022-08-24T22:37:06.046Z,49.45
2022-08-24T22:39:51.280Z,49.59
2022-08-24T22:42:37.073Z,50.42
2022-08-24T22:45:22.651Z,49.96
2022-08-24T22:48:08.131Z,51.33
2022-08-24T22:50:53.428Z,49.94
2022-08-24T22:53:40.012Z,51.64
2022-08-24T22:56:32.883Z,50.86
2022-08-24T22:59:23.894Z,51.28
2022-08-24T23:02:13.221Z,52.54
2022-08-24T23:04:58.205Z,50.78
2022-08-24T23:07:43.688Z,51.87
2022-08-24T23:10:28.481Z,50.63
2022-08-24T23:13:14.079Z,51.03
2022-08-24T23:16:08.212Z,50.67
2022-08-24T23:18:53.804Z,52.56
2022-08-24T23:21:38.909Z,51.87
2022-08-24T23:24:24.243Z,53.46
2022-08-24T23:27:10.943Z,52.61
2022-08-24T23:29:55.997Z,51.69
2022-08-24T23:32:40.918Z,51.98
2022-08-24T23:35:26.598Z,52.81
2022-08-24T23:38:11.814Z,51.98
2022-08-24T23:40:57.106Z,53.40
2022-08-24T23:43:42.939Z,53.85
2022-08-24T23:46:28.375Z,53.99
2022-08-24T23:49:15.123Z,55.14
2022-08-24T23:52:00.627Z,54.54
2022-08-24T23:54:46.154Z,54.94
2022-08-24T23:57:31.559Z,55.06
